createdAt,value
2019-06-01T00:00:11.636Z,5.00
2019-06-01T00:02:38.693Z,7.30
2019-06-01T00:05:07.759Z,4.50
2019-06-01T00:07:36.680Z,6.87
2019-06-01T00:10:08.332Z,5.92
2019-06-01T00:12:37.165Z,5.58
2019-06-01T00:15:06.808Z,4.95
2019-06-01T00:17:35.671Z,5.12
2019-06-01T00:20:05.786Z,5.08
2019-06-01T00:22:34.679Z,6.47
2019-06-01T00:25:04.313Z,5.72
2019-06-01T00:27:33.148Z,6.53
2019-06-01T00:30:02.033Z,6.70
2019-06-01T00:32:30.892Z,5.97
2019-06-01T00:34:59.747Z,4.95
2019-06-01T00:37:28.591Z,9.80
2019-06-01T00:39:57.410Z,4.95
2019-06-01T00:42:26.276Z,6.95
2019-06-01T00:44:55.121Z,5.42
2019-06-01T00:47:24.013Z,6.58
2019-06-01T00:49:53.151Z,5.28
2019-06-01T00:52:22.184Z,5.62
2019-06-01T00:54:51.684Z,5.00
2019-06-01T00:57:22.272Z,5.95
2019-06-01T00:59:53.188Z,4.67
2019-06-01T01:02:21.928Z,7.05
2019-06-01T01:05:02.707Z,7.90
2019-06-01T01:07:31.586Z,6.35
2019-06-01T01:10:00.395Z,8.33
2019-06-01T01:12:29.243Z,6.42
2019-06-01T01:14:58.079Z,8.38
2019-06-01T01:17:26.955Z,7.47
2019-06-01T01:19:56.031Z,5.80
2019-06-01T01:22:25.129Z,8.18
2019-06-01T01:24:54.589Z,5.00
2019-06-01T01:27:23.781Z,5.65
2019-06-01T01:29:53.148Z,6.25
2019-06-01T01:32:22.363Z,8.50
2019-06-01T01:34:51.552Z,7.60
2019-06-01T01:37:20.599Z,9.30
2019-06-01T01:39:50.114Z,7.25
2019-06-01T01:42:19.319Z,8.08
2019-06-01T01:44:48.379Z,7.95
2019-06-01T01:47:17.526Z,7.12
2019-06-01T01:49:46.358Z,7.65
2019-06-01T01:52:15.205Z,8.18
2019-06-01T01:54:44.090Z,6.12
2019-06-01T01:57:12.907Z,7.70
2019-06-01T01:59:41.799Z,7.67
2019-06-01T02:02:10.637Z,7.72
2019-06-01T02:04:39.490Z,5.85
2019-06-01T02:07:08.345Z,7.33
2019-06-01T02:09:37.179Z,6.67
2019-06-01T02:12:06.088Z,8.55
2019-06-01T02:14:34.912Z,6.45
2019-06-01T02:17:03.743Z,7.15
2019-06-01T02:19:32.615Z,9.50
2019-06-01T02:22:03.549Z,5.75
2019-06-01T02:24:32.015Z,7.40
2019-06-01T02:27:01.278Z,8.25
2019-06-01T02:29:30.433Z,12.23
2019-06-01T02:32:01.074Z,5.45
2019-06-01T02:34:29.761Z,10.05
2019-06-01T02:37:00.101Z,5.87
2019-06-01T02:39:29.175Z,6.25
2019-06-01T02:41:59.100Z,6.40
2019-06-01T02:44:27.993Z,6.92
2019-06-01T02:46:59.326Z,7.12
2019-06-01T02:49:28.517Z,8.80
2019-06-01T02:51:57.364Z,7.00
2019-06-01T02:54:26.249Z,8.20
2019-06-01T02:56:55.849Z,7.92
2019-06-01T02:59:24.711Z,8.05
2019-06-01T03:01:58.237Z,7.37
2019-06-01T03:04:24.769Z,7.85
2019-06-01T03:06:54.713Z,8.80
2019-06-01T03:09:25.555Z,9.05
2019-06-01T03:11:58.896Z,12.40
2019-06-01T03:14:28.671Z,11.73
2019-06-01T03:16:59.920Z,7.60
2019-06-01T03:19:31.666Z,8.87
2019-06-01T03:22:03.713Z,9.25
2019-06-01T03:24:35.823Z,10.25
2019-06-01T03:29:36.973Z,12.05
2019-06-01T03:34:35.442Z,10.20
2019-06-01T03:37:04.946Z,9.75
2019-06-01T03:39:34.627Z,10.35
2019-06-01T03:42:03.627Z,9.55
2019-06-01T03:44:32.451Z,9.38
2019-06-01T03:47:01.585Z,7.40
2019-06-01T03:49:30.776Z,10.50
2019-06-01T03:52:00.565Z,9.30
2019-06-01T03:54:29.716Z,13.50
2019-06-01T03:56:58.557Z,8.33
2019-06-01T03:59:27.397Z,8.43
2019-06-01T04:01:56.254Z,7.87
2019-06-01T04:04:25.097Z,11.83
2019-06-01T04:06:54.410Z,10.95
2019-06-01T04:09:23.254Z,13.18
2019-06-01T04:11:52.125Z,12.53
2019-06-01T04:14:20.991Z,11.63
2019-06-01T04:16:49.825Z,9.00
2019-06-01T04:19:18.699Z,10.23
2019-06-01T04:21:47.536Z,12.55
2019-06-01T04:24:16.420Z,9.65
2019-06-01T04:26:45.276Z,12.47
2019-06-01T04:29:14.093Z,10.70
2019-06-01T04:31:42.982Z,8.10
2019-06-01T04:34:13.018Z,10.20
2019-06-01T04:36:42.227Z,7.03
2019-06-01T04:39:11.678Z,12.23
2019-06-01T04:41:40.915Z,10.82
2019-06-01T04:44:10.092Z,6.67
2019-06-01T04:46:39.110Z,11.70
2019-06-01T04:49:08.548Z,9.83
2019-06-01T04:51:37.713Z,9.80
2019-06-01T04:54:06.841Z,8.45
2019-06-01T04:56:35.969Z,8.18
2019-06-01T04:59:04.941Z,8.63
2019-06-01T05:01:33.951Z,8.15
2019-06-01T05:04:02.804Z,10.13
2019-06-01T05:06:31.676Z,9.78
2019-06-01T05:09:00.546Z,12.15
2019-06-01T05:11:29.372Z,7.05
2019-06-01T05:13:58.240Z,7.05
2019-06-01T05:16:27.088Z,12.63
2019-06-01T05:18:55.959Z,7.20
2019-06-01T05:21:24.818Z,6.92
2019-06-01T05:23:53.689Z,7.10
2019-06-01T05:26:22.568Z,10.55
2019-06-01T05:28:51.396Z,9.35
2019-06-01T05:31:24.958Z,8.23
2019-06-01T05:33:50.772Z,5.65
2019-06-01T05:36:19.614Z,5.92
2019-06-01T05:38:48.505Z,7.58
2019-06-01T05:41:17.348Z,7.97
2019-06-01T05:43:47.851Z,6.80
2019-06-01T05:46:16.734Z,7.80
2019-06-01T05:48:45.555Z,10.30
2019-06-01T05:51:16.856Z,8.13
2019-06-01T05:53:44.936Z,6.17
2019-06-01T05:56:14.785Z,6.17
2019-06-01T05:58:43.853Z,7.95
2019-06-01T06:01:12.710Z,10.32
2019-06-01T06:03:41.572Z,8.03
2019-06-01T06:06:11.639Z,7.10
2019-06-01T06:08:40.774Z,9.18
2019-06-01T06:11:10.750Z,8.15
2019-06-01T06:13:39.952Z,12.60
2019-06-01T06:16:08.825Z,7.28
2019-06-01T06:18:37.659Z,10.60
2019-06-01T06:21:06.535Z,9.03
2019-06-01T06:23:35.371Z,9.08
2019-06-01T06:26:04.224Z,7.47
2019-06-01T06:28:33.078Z,14.10
2019-06-01T06:31:01.925Z,8.55
2019-06-01T06:33:30.811Z,9.13
2019-06-01T06:35:59.648Z,7.87
2019-06-01T06:38:28.465Z,7.30
2019-06-01T06:40:57.346Z,12.20
2019-06-01T06:43:32.914Z,7.67
2019-06-01T06:45:56.728Z,10.53
2019-06-01T06:48:25.551Z,9.43
2019-06-01T06:50:54.397Z,8.45
2019-06-01T06:53:32.776Z,6.92
2019-06-01T06:55:53.737Z,9.25
2019-06-01T06:58:22.638Z,11.30
2019-06-01T07:00:51.463Z,7.28
2019-06-01T07:03:21.069Z,10.03
2019-06-01T07:05:50.039Z,8.23
2019-06-01T07:08:19.707Z,6.87
2019-06-01T07:10:48.632Z,10.70
2019-06-01T07:13:17.464Z,9.23
2019-06-01T07:15:46.330Z,7.78
2019-06-01T07:18:15.199Z,9.58
2019-06-01T07:20:44.012Z,7.83
2019-06-01T07:23:12.896Z,8.33
2019-06-01T07:25:41.845Z,11.25
2019-06-01T07:28:10.680Z,13.30
2019-06-01T07:30:49.755Z,10.55
2019-06-01T07:33:10.026Z,6.67
2019-06-01T07:35:38.906Z,8.65
2019-06-01T07:38:07.727Z,7.15
2019-06-01T07:40:36.656Z,9.50
2019-06-01T07:43:05.527Z,10.10
2019-06-01T07:45:35.371Z,9.30
2019-06-01T07:48:04.454Z,7.85
2019-06-01T07:50:33.302Z,9.10
2019-06-01T07:53:02.425Z,13.72
2019-06-01T07:55:31.792Z,12.85
2019-06-01T07:58:00.741Z,19.02
2019-06-01T08:00:29.600Z,11.70
2019-06-01T08:02:58.418Z,10.80
2019-06-01T08:05:28.046Z,10.15
2019-06-01T08:07:57.023Z,15.00
2019-06-01T08:10:26.496Z,15.72
2019-06-01T08:12:56.418Z,13.30
2019-06-01T08:15:25.622Z,11.25
2019-06-01T08:17:54.773Z,13.25
2019-06-01T08:20:24.017Z,13.43
2019-06-01T08:22:53.071Z,10.58
2019-06-01T08:25:22.185Z,14.75
2019-06-01T08:27:51.077Z,13.28
2019-06-01T08:30:19.925Z,10.50
2019-06-01T08:32:48.801Z,11.18
2019-06-01T08:35:17.630Z,16.10
2019-06-01T08:37:46.505Z,12.53
2019-06-01T08:40:15.736Z,10.08
2019-06-01T08:42:44.562Z,12.82
2019-06-01T08:45:13.521Z,12.33
2019-06-01T08:47:42.386Z,15.00
2019-06-01T08:50:11.742Z,9.78
2019-06-01T08:52:40.585Z,10.98
2019-06-01T08:55:10.416Z,16.40
2019-06-01T08:57:39.316Z,14.45
2019-06-01T09:00:09.668Z,12.90
2019-06-01T09:02:38.543Z,7.70
2019-06-01T09:05:23.368Z,11.80
2019-06-01T09:07:39.185Z,11.38
2019-06-01T09:10:10.306Z,9.68
2019-06-01T09:12:39.159Z,11.77
2019-06-01T09:15:09.239Z,9.50
2019-06-01T09:17:38.090Z,8.10
2019-06-01T09:20:20.752Z,12.45
2019-06-01T09:23:00.186Z,11.03
2019-06-01T09:25:40.104Z,12.28
2019-06-01T09:28:31.895Z,7.92
2019-06-01T09:30:53.611Z,7.15
2019-06-01T09:33:23.229Z,13.40
2019-06-01T09:36:03.042Z,9.83
2019-06-01T09:38:38.535Z,10.18
2019-06-01T09:41:11.981Z,9.75
2019-06-01T09:43:48.368Z,7.47
2019-06-01T09:46:18.429Z,7.20
2019-06-01T09:48:52.538Z,7.83
2019-06-01T09:51:24.636Z,7.90
2019-06-01T09:56:33.491Z,5.00
2019-06-01T09:59:04.222Z,5.10
2019-06-01T10:01:34.340Z,3.92
2019-06-01T10:04:03.509Z,6.20
2019-06-01T10:06:53.722Z,4.35
2019-06-01T10:09:26.242Z,5.15
2019-06-01T10:11:56.124Z,3.58
2019-06-01T10:14:25.525Z,3.87
2019-06-01T10:16:54.566Z,3.87
2019-06-01T10:19:23.463Z,2.65
2019-06-01T10:21:52.403Z,5.05
2019-06-01T10:24:21.364Z,3.47
2019-06-01T10:26:50.253Z,3.92
2019-06-01T10:29:19.309Z,7.35
2019-06-01T10:31:48.212Z,5.40
2019-06-01T10:34:17.288Z,4.35
2019-06-01T10:36:46.181Z,4.33
2019-06-01T10:39:15.015Z,6.50
2019-06-01T10:41:43.860Z,3.98
2019-06-01T10:44:12.833Z,6.05
2019-06-01T10:46:42.194Z,4.60
2019-06-01T10:49:11.504Z,6.25
2019-06-01T10:51:40.524Z,6.50
2019-06-01T10:54:09.494Z,4.40
2019-06-01T10:56:38.555Z,7.08
2019-06-01T10:59:07.748Z,10.88
2019-06-01T11:01:37.755Z,11.28
2019-06-01T11:04:07.095Z,6.47
2019-06-01T11:06:40.857Z,4.53
2019-06-01T11:09:09.190Z,4.40
2019-06-01T11:11:39.091Z,6.42
2019-06-01T11:14:08.054Z,3.62
2019-06-01T11:16:37.341Z,4.45
2019-06-01T11:19:06.467Z,4.20
2019-06-01T11:21:35.567Z,4.62
2019-06-01T11:24:05.501Z,3.25
2019-06-01T11:26:35.514Z,4.78
2019-06-01T11:29:04.704Z,4.45
2019-06-01T11:31:33.909Z,4.72
2019-06-01T11:34:03.116Z,6.35
2019-06-01T11:36:32.379Z,4.00
2019-06-01T11:39:01.630Z,6.50
2019-06-01T11:41:30.637Z,5.65
2019-06-01T11:43:59.693Z,5.00
2019-06-01T11:46:28.573Z,5.55
2019-06-01T11:48:57.445Z,4.95
2019-06-01T11:51:26.331Z,4.53
2019-06-01T11:53:55.334Z,4.10
2019-06-01T11:56:24.186Z,5.00
2019-06-01T11:58:53.155Z,8.25
2019-06-01T12:01:22.029Z,8.48
2019-06-01T12:03:50.885Z,6.97
2019-06-01T12:06:19.774Z,7.17
2019-06-01T12:08:48.648Z,5.25
2019-06-01T12:11:17.573Z,7.12
2019-06-01T12:13:46.614Z,8.85
2019-06-01T12:16:15.976Z,7.72
2019-06-01T12:18:44.913Z,9.43
2019-06-01T12:21:14.280Z,7.50
2019-06-01T12:23:43.595Z,7.97
2019-06-01T12:26:12.645Z,6.37
2019-06-01T12:28:41.721Z,6.35
2019-06-01T12:31:10.814Z,7.25
2019-06-01T12:33:39.906Z,7.75
2019-06-01T12:36:08.842Z,9.45
2019-06-01T12:38:52.742Z,8.48
2019-06-01T12:41:23.081Z,8.00
2019-06-01T12:43:57.153Z,6.60
2019-06-01T12:46:26.079Z,7.62
2019-06-01T12:48:56.468Z,6.10
2019-06-01T12:51:32.865Z,5.80
2019-06-01T12:54:01.780Z,6.67
2019-06-01T12:56:30.618Z,7.92
2019-06-01T12:58:59.473Z,9.25
2019-06-01T13:01:28.503Z,9.50
2019-06-01T13:03:57.361Z,6.17
2019-06-01T13:06:26.219Z,7.72
2019-06-01T13:08:55.098Z,7.45
2019-06-01T13:11:23.931Z,8.45
2019-06-01T13:13:52.831Z,8.13
2019-06-01T13:16:21.676Z,5.53
2019-06-01T13:18:51.597Z,4.67
2019-06-01T13:21:20.610Z,5.83
2019-06-01T13:23:51.618Z,4.08
2019-06-01T13:26:20.744Z,4.58
2019-06-01T13:28:50.513Z,6.70
2019-06-01T13:31:19.669Z,5.78
2019-06-01T13:33:51.712Z,8.83
2019-06-01T13:36:19.103Z,8.75
2019-06-01T13:38:48.792Z,9.38
2019-06-01T13:41:17.828Z,6.47
2019-06-01T13:43:47.257Z,8.50
2019-06-01T13:46:16.390Z,8.20
2019-06-01T13:48:45.573Z,5.62
2019-06-01T13:51:14.617Z,7.25
2019-06-01T13:53:44.122Z,7.92
2019-06-01T13:56:13.265Z,7.28
2019-06-01T13:58:42.092Z,6.03
2019-06-01T14:01:10.986Z,6.22
2019-06-01T14:03:40.643Z,4.80
2019-06-01T14:06:09.529Z,5.75
2019-06-01T14:08:38.365Z,5.00
2019-06-01T14:11:07.208Z,5.25
2019-06-01T14:13:36.089Z,3.90
2019-06-01T14:16:04.945Z,4.45
2019-06-01T14:18:33.840Z,7.22
2019-06-01T14:21:02.692Z,6.20
2019-06-01T14:23:31.528Z,7.08
2019-06-01T14:26:00.414Z,9.60
2019-06-01T14:28:29.259Z,6.37
2019-06-01T14:30:58.152Z,6.85
2019-06-01T14:33:26.975Z,6.50
2019-06-01T14:35:56.653Z,6.53
2019-06-01T14:38:25.910Z,5.80
2019-06-01T14:40:55.195Z,6.50
2019-06-01T14:43:24.163Z,4.05
2019-06-01T14:45:54.204Z,6.12
2019-06-01T14:48:23.351Z,6.53
2019-06-01T14:50:53.676Z,6.20
2019-06-01T14:53:22.837Z,9.75
2019-06-01T14:55:51.784Z,7.20
2019-06-01T14:58:20.651Z,7.75
2019-06-01T15:00:50.256Z,6.17
2019-06-01T15:03:19.452Z,4.90
2019-06-01T15:05:48.301Z,8.15
2019-06-01T15:08:17.169Z,9.13
2019-06-01T15:10:46.011Z,7.20
2019-06-01T15:13:14.823Z,6.05
2019-06-01T15:15:43.685Z,9.28
2019-06-01T15:18:12.538Z,6.25
2019-06-01T15:20:41.440Z,7.75
2019-06-01T15:23:10.275Z,8.33
2019-06-01T15:25:39.122Z,9.20
2019-06-01T15:28:07.988Z,10.08
2019-06-01T15:30:36.835Z,8.25
2019-06-01T15:33:05.744Z,8.58
2019-06-01T15:35:36.287Z,8.55
2019-06-01T15:38:05.128Z,8.15
2019-06-01T15:40:33.965Z,8.65
2019-06-01T15:43:02.785Z,7.30
2019-06-01T15:45:31.669Z,8.68
2019-06-01T15:48:00.525Z,6.70
2019-06-01T15:50:29.333Z,12.82
2019-06-01T15:52:59.334Z,8.35
2019-06-01T15:55:28.541Z,6.47
2019-06-01T15:57:58.452Z,7.78
2019-06-01T16:00:27.527Z,8.75
2019-06-01T16:02:56.840Z,9.45
2019-06-01T16:05:26.138Z,9.85
2019-06-01T16:07:55.661Z,5.85
2019-06-01T16:10:24.532Z,10.58
2019-06-01T16:12:53.431Z,8.78
2019-06-01T16:15:22.278Z,7.17
2019-06-01T16:17:51.155Z,7.12
2019-06-01T16:20:20.001Z,10.32
2019-06-01T16:22:48.931Z,7.83
2019-06-01T16:25:17.768Z,12.93
2019-06-01T16:27:46.582Z,7.10
2019-06-01T16:30:15.866Z,7.87
2019-06-01T16:32:44.704Z,8.65
2019-06-01T16:35:14.190Z,8.60
2019-06-01T16:37:43.040Z,8.38
2019-06-01T16:40:12.788Z,7.35
2019-06-01T16:42:41.634Z,7.05
2019-06-01T16:45:11.057Z,6.55
2019-06-01T16:47:39.952Z,5.92
2019-06-01T16:50:10.571Z,7.22
2019-06-01T16:52:39.517Z,9.15
2019-06-01T16:55:09.865Z,12.68
2019-06-01T16:57:38.836Z,8.73
2019-06-01T17:00:10.415Z,7.08
2019-06-01T17:02:39.220Z,6.45
2019-06-01T17:05:09.257Z,15.85
2019-06-01T17:07:38.067Z,9.05
2019-06-01T17:10:25.020Z,8.33
2019-06-01T17:12:43.317Z,7.50
2019-06-01T17:15:11.279Z,9.83
2019-06-01T17:17:40.168Z,10.20
2019-06-01T17:20:28.336Z,12.95
2019-06-01T17:22:57.535Z,12.07
2019-06-01T17:25:26.705Z,12.05
2019-06-01T17:27:55.579Z,11.55
2019-06-01T17:30:24.460Z,13.60
2019-06-01T17:32:53.383Z,12.75
2019-06-01T17:35:22.230Z,11.08
2019-06-01T17:37:51.392Z,11.20
2019-06-01T17:40:35.946Z,11.40
2019-06-01T17:42:50.925Z,9.95
2019-06-01T17:45:19.777Z,9.90
2019-06-01T17:47:48.658Z,9.18
2019-06-01T17:50:22.314Z,8.20
2019-06-01T17:52:51.143Z,8.90
2019-06-01T17:55:34.829Z,16.93
2019-06-01T17:58:03.840Z,10.58
2019-06-01T18:00:32.648Z,13.08
2019-06-01T18:03:01.632Z,10.43
2019-06-01T18:05:30.564Z,14.38
2019-06-01T18:07:59.482Z,15.48
2019-06-01T18:10:28.849Z,10.80
2019-06-01T18:12:57.736Z,14.63
2019-06-01T18:15:26.565Z,11.95
2019-06-01T18:17:55.458Z,12.37
2019-06-01T18:20:24.314Z,16.20
2019-06-01T18:22:53.137Z,11.10
2019-06-01T18:25:25.284Z,10.88
2019-06-01T18:27:54.833Z,11.68
2019-06-01T18:30:24.718Z,13.55
2019-06-01T18:32:54.566Z,12.90
2019-06-01T18:35:24.454Z,11.20
2019-06-01T18:37:53.344Z,16.67
2019-06-01T18:40:24.884Z,12.10
2019-06-01T18:43:06.040Z,14.80
2019-06-01T18:45:35.551Z,13.40
2019-06-01T18:48:06.089Z,11.78
2019-06-01T18:50:35.531Z,14.83
2019-06-01T18:53:06.036Z,11.80
2019-06-01T18:55:35.924Z,14.28
2019-06-01T18:58:06.318Z,12.80
2019-06-01T19:00:39.234Z,10.48
2019-06-01T19:03:07.043Z,13.68
2019-06-01T19:05:36.197Z,11.45
2019-06-01T19:08:05.247Z,14.20
2019-06-01T19:10:34.031Z,11.22
2019-06-01T19:13:02.862Z,10.93
2019-06-01T19:15:31.723Z,10.88
2019-06-01T19:18:00.552Z,9.68
2019-06-01T19:20:33.037Z,20.97
2019-06-01T19:22:59.929Z,9.75
2019-06-01T19:25:28.759Z,10.85
2019-06-01T19:27:57.631Z,13.78
2019-06-01T19:30:37.387Z,10.18
2019-06-01T19:33:10.015Z,10.40
2019-06-01T19:35:37.985Z,13.78
2019-06-01T19:38:07.067Z,13.53
2019-06-01T19:40:37.893Z,12.30
2019-06-01T19:43:07.582Z,19.90
2019-06-01T19:45:36.811Z,14.73
2019-06-01T19:48:08.213Z,13.53
2019-06-01T19:50:37.511Z,14.40
2019-06-01T19:53:06.338Z,21.35
2019-06-01T19:55:35.203Z,14.25
2019-06-01T19:58:04.435Z,16.45
2019-06-01T20:00:33.314Z,16.55
2019-06-01T20:03:02.151Z,16.05
2019-06-01T20:05:31.243Z,11.78
2019-06-01T20:08:00.145Z,9.95
2019-06-01T20:10:29.004Z,11.60
2019-06-01T20:12:57.864Z,9.98
2019-06-01T20:15:26.712Z,9.13
2019-06-01T20:17:55.579Z,11.95
2019-06-01T20:20:24.495Z,8.95
2019-06-01T20:22:53.340Z,9.53
2019-06-01T20:25:22.209Z,9.20
2019-06-01T20:27:51.043Z,9.03
2019-06-01T20:30:20.173Z,8.23
2019-06-01T20:32:49.552Z,7.03
2019-06-01T20:35:18.402Z,8.53
2019-06-01T20:37:47.313Z,8.53
2019-06-01T20:40:16.259Z,7.65
2019-06-01T20:42:45.322Z,8.88
2019-06-01T20:45:14.574Z,9.70
2019-06-01T20:47:43.613Z,7.92
2019-06-01T20:50:13.010Z,9.65
2019-06-01T20:52:41.900Z,10.55
2019-06-01T20:55:10.735Z,8.90
2019-06-01T20:57:39.647Z,11.60
2019-06-01T21:00:10.335Z,9.20
2019-06-01T21:02:39.192Z,8.25
2019-06-01T21:05:09.328Z,14.23
2019-06-01T21:07:38.290Z,8.20
2019-06-01T21:10:09.300Z,7.35
2019-06-01T21:12:44.807Z,10.00
2019-06-01T21:15:09.176Z,11.03
2019-06-01T21:17:38.051Z,9.50
2019-06-01T21:20:10.862Z,11.43
2019-06-01T21:22:39.700Z,11.55
2019-06-01T21:25:09.739Z,10.23
2019-06-01T21:27:38.653Z,9.28
2019-06-01T21:30:08.283Z,8.48
2019-06-01T21:32:37.165Z,8.80
2019-06-01T21:35:06.918Z,11.70
2019-06-01T21:37:35.743Z,11.80
2019-06-01T21:40:07.805Z,8.65
2019-06-01T21:45:07.444Z,10.53
2019-06-01T21:47:36.273Z,10.18
2019-06-01T21:50:07.054Z,11.83
2019-06-01T21:52:35.951Z,10.90
2019-06-01T21:55:07.182Z,11.12
2019-06-01T21:57:36.105Z,8.77
2019-06-01T22:00:10.662Z,9.13
2019-06-01T22:02:39.533Z,11.50
2019-06-01T22:05:08.638Z,8.95
2019-06-01T22:07:37.484Z,8.95
2019-06-01T22:10:07.612Z,7.83
2019-06-01T22:12:36.536Z,11.03
2019-06-01T22:15:06.891Z,11.85
2019-06-01T22:17:35.759Z,11.25
2019-06-01T22:20:05.887Z,10.95
2019-06-01T22:22:34.754Z,13.10
2019-06-01T22:25:04.877Z,10.60
2019-06-01T22:27:33.781Z,10.63
2019-06-01T22:30:02.640Z,7.65
2019-06-01T22:32:31.848Z,10.53
2019-06-01T22:35:01.136Z,10.55
2019-06-01T22:37:30.300Z,9.13
2019-06-01T22:39:59.175Z,8.85
2019-06-01T22:42:28.439Z,8.33
2019-06-01T22:44:57.553Z,7.42
2019-06-01T22:47:26.672Z,10.30
2019-06-01T22:49:55.869Z,9.13
2019-06-01T22:52:25.042Z,10.00
2019-06-01T22:54:54.190Z,8.10
2019-06-01T22:57:24.281Z,9.75
2019-06-01T22:59:53.411Z,8.33
2019-06-01T23:02:23.492Z,10.25
2019-06-01T23:04:52.629Z,9.00
2019-06-01T23:07:21.455Z,7.83
2019-06-01T23:09:50.292Z,7.20
2019-06-01T23:12:19.155Z,8.38
2019-06-01T23:14:48.788Z,11.70
2019-06-01T23:17:17.671Z,14.95
2019-06-01T23:19:46.526Z,9.70
2019-06-01T23:22:15.357Z,9.30
2019-06-01T23:24:44.227Z,9.08
2019-06-01T23:27:13.056Z,9.20
2019-06-01T23:29:41.929Z,9.73
2019-06-01T23:32:10.816Z,12.43
2019-06-01T23:34:39.603Z,10.82
2019-06-01T23:37:08.475Z,12.37
2019-06-01T23:39:37.323Z,11.15
2019-06-01T23:42:06.213Z,10.43
2019-06-01T23:44:35.202Z,9.85
2019-06-01T23:47:04.228Z,13.25
2019-06-01T23:49:34.030Z,9.63
2019-06-01T23:52:03.080Z,11.90
2019-06-01T23:54:32.469Z,10.63
2019-06-01T23:57:01.816Z,8.85
2019-06-01T23:59:31.006Z,10.88
